sensor_id;sensor_type;location;lat;lon;timestamp;temperature;humidity
13982;DHT22;7065;50.880;5.502;2024-03-02T00:00:11;9.40;99.90
13982;DHT22;7065;50.880;5.502;2024-03-02T00:02:45;9.40;99.90
13982;DHT22;7065;50.880;5.502;2024-03-02T00:05:13;9.40;99.90
13982;DHT22;7065;50.880;5.502;2024-03-02T00:07:41;9.40;99.90
13982;DHT22;7065;50.880;5.502;2024-03-02T00:10:11;9.50;99.90
13982;DHT22;7065;50.880;5.502;2024-03-02T00:12:40;9.50;99.90
13982;DHT22;7065;50.880;5.502;2024-03-02T00:15:20;9.50;99.90
13982;DHT22;7065;50.880;5.502;2024-03-02T00:17:55;9.50;99.90
13982;DHT22;7065;50.880;5.502;2024-03-02T00:20:24;9.50;99.90
13982;DHT22;7065;50.880;5.502;2024-03-02T00:23:03;9.50;99.90
13982;DHT22;7065;50.880;5.502;2024-03-02T00:28:09;9.50;99.90
13982;DHT22;7065;50.880;5.502;2024-03-02T00:33:22;9.00;99.90
13982;DHT22;7065;50.880;5.502;2024-03-02T00:35:49;8.70;99.90
13982;DHT22;7065;50.880;5.502;2024-03-02T00:38:15;8.50;99.90
13982;DHT22;7065;50.880;5.502;2024-03-02T00:40:41;8.20;99.90
13982;DHT22;7065;50.880;5.502;2024-03-02T00:43:27;8.00;99.90
13982;DHT22;7065;50.880;5.502;2024-03-02T00:46:01;7.80;99.90
13982;DHT22;7065;50.880;5.502;2024-03-02T00:48:27;7.70;99.90
13982;DHT22;7065;50.880;5.502;2024-03-02T00:50:52;7.70;99.90
13982;DHT22;7065;50.880;5.502;2024-03-02T00:53:23;7.60;99.90
13982;DHT22;7065;50.880;5.502;2024-03-02T00:55:50;7.60;99.90
13982;DHT22;7065;50.880;5.502;2024-03-02T00:58:15;7.60;99.90
13982;DHT22;7065;50.880;5.502;2024-03-02T01:00:41;7.60;99.90
13982;DHT22;7065;50.880;5.502;2024-03-02T01:03:07;7.60;99.90
13982;DHT22;7065;50.880;5.502;2024-03-02T01:05:33;7.50;99.90
13982;DHT22;7065;50.880;5.502;2024-03-02T01:07:59;7.50;99.90
13982;DHT22;7065;50.880;5.502;2024-03-02T01:10:25;7.50;99.90
13982;DHT22;7065;50.880;5.502;2024-03-02T01:12:51;7.50;99.90
13982;DHT22;7065;50.880;5.502;2024-03-02T01:15:17;7.60;99.90
13982;DHT22;7065;50.880;5.502;2024-03-02T01:17:43;7.60;99.90
13982;DHT22;7065;50.880;5.502;2024-03-02T01:20:09;7.60;99.90
13982;DHT22;7065;50.880;5.502;2024-03-02T01:22:35;7.60;99.90
13982;DHT22;7065;50.880;5.502;2024-03-02T01:25:01;7.70;99.90
13982;DHT22;7065;50.880;5.502;2024-03-02T01:27:28;7.70;99.90
13982;DHT22;7065;50.880;5.502;2024-03-02T01:29:53;7.70;99.90
13982;DHT22;7065;50.880;5.502;2024-03-02T01:32:20;7.70;99.90
13982;DHT22;7065;50.880;5.502;2024-03-02T01:34:46;7.70;99.90
13982;DHT22;7065;50.880;5.502;2024-03-02T01:37:11;7.70;99.90
13982;DHT22;7065;50.880;5.502;2024-03-02T01:39:37;7.70;99.90
13982;DHT22;7065;50.880;5.502;2024-03-02T01:42:03;7.60;99.90
13982;DHT22;7065;50.880;5.502;2024-03-02T01:44:28;7.60;99.90
13982;DHT22;7065;50.880;5.502;2024-03-02T01:46:54;7.60;99.90
13982;DHT22;7065;50.880;5.502;2024-03-02T01:49:20;7.50;99.90
13982;DHT22;7065;50.880;5.502;2024-03-02T01:51:46;7.50;99.90
13982;DHT22;7065;50.880;5.502;2024-03-02T01:54:11;7.50;99.90
13982;DHT22;7065;50.880;5.502;2024-03-02T01:56:37;7.50;99.90
13982;DHT22;7065;50.880;5.502;2024-03-02T01:59:03;7.50;99.90
13982;DHT22;7065;50.880;5.502;2024-03-02T02:01:29;7.50;99.90
13982;DHT22;7065;50.880;5.502;2024-03-02T02:03:54;7.40;99.90
13982;DHT22;7065;50.880;5.502;2024-03-02T02:06:21;7.40;99.90
13982;DHT22;7065;50.880;5.502;2024-03-02T02:08:47;7.40;99.90
13982;DHT22;7065;50.880;5.502;2024-03-02T02:11:16;7.40;99.90
13982;DHT22;7065;50.880;5.502;2024-03-02T02:13:42;7.30;99.90
13982;DHT22;7065;50.880;5.502;2024-03-02T02:16:08;7.30;99.90
13982;DHT22;7065;50.880;5.502;2024-03-02T02:18:34;7.20;99.90
13982;DHT22;7065;50.880;5.502;2024-03-02T02:21:01;7.20;99.90
13982;DHT22;7065;50.880;5.502;2024-03-02T02:23:27;7.20;99.90
13982;DHT22;7065;50.880;5.502;2024-03-02T02:25:53;7.20;99.90
13982;DHT22;7065;50.880;5.502;2024-03-02T02:28:18;7.10;99.90
13982;DHT22;7065;50.880;5.502;2024-03-02T02:30:44;7.10;99.90
13982;DHT22;7065;50.880;5.502;2024-03-02T02:33:10;7.10;99.90
13982;DHT22;7065;50.880;5.502;2024-03-02T02:35:35;7.10;99.90
13982;DHT22;7065;50.880;5.502;2024-03-02T02:38:02;7.10;99.90
13982;DHT22;7065;50.880;5.502;2024-03-02T02:40:28;7.10;99.90
13982;DHT22;7065;50.880;5.502;2024-03-02T02:42:57;7.10;99.90
13982;DHT22;7065;50.880;5.502;2024-03-02T02:45:25;7.00;99.90
13982;DHT22;7065;50.880;5.502;2024-03-02T02:47:51;7.00;99.90
13982;DHT22;7065;50.880;5.502;2024-03-02T02:50:16;7.00;99.90
13982;DHT22;7065;50.880;5.502;2024-03-02T02:52:42;7.00;99.90
13982;DHT22;7065;50.880;5.502;2024-03-02T02:55:10;7.00;99.90
13982;DHT22;7065;50.880;5.502;2024-03-02T02:57:36;7.00;99.90
13982;DHT22;7065;50.880;5.502;2024-03-02T03:00:07;7.00;99.90
13982;DHT22;7065;50.880;5.502;2024-03-02T03:02:37;7.00;99.90
13982;DHT22;7065;50.880;5.502;2024-03-02T03:05:03;7.00;99.90
13982;DHT22;7065;50.880;5.502;2024-03-02T03:07:29;7.00;99.90
13982;DHT22;7065;50.880;5.502;2024-03-02T03:09:55;7.00;99.90
13982;DHT22;7065;50.880;5.502;2024-03-02T03:12:20;7.00;99.90
13982;DHT22;7065;50.880;5.502;2024-03-02T03:14:46;7.00;99.90
13982;DHT22;7065;50.880;5.502;2024-03-02T03:17:12;7.00;99.90
13982;DHT22;7065;50.880;5.502;2024-03-02T03:19:38;7.00;99.90
13982;DHT22;7065;50.880;5.502;2024-03-02T03:22:04;7.00;99.90
13982;DHT22;7065;50.880;5.502;2024-03-02T03:24:30;7.00;99.90
13982;DHT22;7065;50.880;5.502;2024-03-02T03:26:56;7.00;99.90
13982;DHT22;7065;50.880;5.502;2024-03-02T03:29:22;7.00;99.90
13982;DHT22;7065;50.880;5.502;2024-03-02T03:31:47;7.00;99.90
13982;DHT22;7065;50.880;5.502;2024-03-02T03:34:13;7.00;99.90
13982;DHT22;7065;50.880;5.502;2024-03-02T03:36:41;7.00;99.90
13982;DHT22;7065;50.880;5.502;2024-03-02T03:39:07;7.00;99.90
13982;DHT22;7065;50.880;5.502;2024-03-02T03:41:33;7.00;99.90
13982;DHT22;7065;50.880;5.502;2024-03-02T03:43:58;7.00;99.90
13982;DHT22;7065;50.880;5.502;2024-03-02T03:46:24;7.00;99.90
13982;DHT22;7065;50.880;5.502;2024-03-02T03:48:50;7.00;99.90
13982;DHT22;7065;50.880;5.502;2024-03-02T03:51:16;7.00;99.90
13982;DHT22;7065;50.880;5.502;2024-03-02T03:53:41;7.00;99.90
13982;DHT22;7065;50.880;5.502;2024-03-02T03:56:07;7.00;99.90
13982;DHT22;7065;50.880;5.502;2024-03-02T03:58:33;7.00;99.90
13982;DHT22;7065;50.880;5.502;2024-03-02T04:00:59;7.00;99.90
13982;DHT22;7065;50.880;5.502;2024-03-02T04:03:24;7.00;99.90
13982;DHT22;7065;50.880;5.502;2024-03-02T04:05:51;7.00;99.90
13982;DHT22;7065;50.880;5.502;2024-03-02T04:08:17;7.00;99.90
13982;DHT22;7065;50.880;5.502;2024-03-02T04:10:42;7.00;99.90
13982;DHT22;7065;50.880;5.502;2024-03-02T04:13:08;6.90;99.90
13982;DHT22;7065;50.880;5.502;2024-03-02T04:15:35;6.90;99.90
13982;DHT22;7065;50.880;5.502;2024-03-02T04:18:00;6.90;99.90
13982;DHT22;7065;50.880;5.502;2024-03-02T04:20:26;6.90;99.90
13982;DHT22;7065;50.880;5.502;2024-03-02T04:22:52;6.90;99.90
13982;DHT22;7065;50.880;5.502;2024-03-02T04:25:18;6.90;99.90
13982;DHT22;7065;50.880;5.502;2024-03-02T04:27:45;6.90;99.90
13982;DHT22;7065;50.880;5.502;2024-03-02T04:30:11;7.00;99.90
13982;DHT22;7065;50.880;5.502;2024-03-02T04:32:37;7.00;99.90
13982;DHT22;7065;50.880;5.502;2024-03-02T04:35:02;7.00;99.90
13982;DHT22;7065;50.880;5.502;2024-03-02T04:37:28;7.00;99.90
13982;DHT22;7065;50.880;5.502;2024-03-02T04:39:54;7.00;99.90
13982;DHT22;7065;50.880;5.502;2024-03-02T04:42:20;7.00;99.90
13982;DHT22;7065;50.880;5.502;2024-03-02T04:44:46;7.00;99.90
13982;DHT22;7065;50.880;5.502;2024-03-02T04:47:12;6.90;99.90
13982;DHT22;7065;50.880;5.502;2024-03-02T04:49:38;6.90;99.90
13982;DHT22;7065;50.880;5.502;2024-03-02T04:52:03;7.00;99.90
13982;DHT22;7065;50.880;5.502;2024-03-02T04:54:29;6.90;99.90
13982;DHT22;7065;50.880;5.502;2024-03-02T04:56:55;6.80;99.90
13982;DHT22;7065;50.880;5.502;2024-03-02T04:59:21;6.80;99.90
13982;DHT22;7065;50.880;5.502;2024-03-02T05:01:46;6.80;99.90
13982;DHT22;7065;50.880;5.502;2024-03-02T05:04:13;6.80;99.90
13982;DHT22;7065;50.880;5.502;2024-03-02T05:06:39;6.70;99.90
13982;DHT22;7065;50.880;5.502;2024-03-02T05:09:08;6.70;99.90
13982;DHT22;7065;50.880;5.502;2024-03-02T05:11:34;6.70;99.90
13982;DHT22;7065;50.880;5.502;2024-03-02T05:14:03;6.70;99.90
13982;DHT22;7065;50.880;5.502;2024-03-02T05:16:29;6.70;99.90
13982;DHT22;7065;50.880;5.502;2024-03-02T05:18:54;6.80;99.90
13982;DHT22;7065;50.880;5.502;2024-03-02T05:21:20;6.80;99.90
13982;DHT22;7065;50.880;5.502;2024-03-02T05:23:46;6.80;99.90
13982;DHT22;7065;50.880;5.502;2024-03-02T05:26:12;6.70;99.90
13982;DHT22;7065;50.880;5.502;2024-03-02T05:28:39;6.60;99.90
13982;DHT22;7065;50.880;5.502;2024-03-02T05:31:04;6.60;99.90
13982;DHT22;7065;50.880;5.502;2024-03-02T05:33:30;6.50;99.90
13982;DHT22;7065;50.880;5.502;2024-03-02T05:35:58;6.40;99.90
13982;DHT22;7065;50.880;5.502;2024-03-02T05:38:24;6.40;99.90
13982;DHT22;7065;50.880;5.502;2024-03-02T05:40:50;6.30;99.90
13982;DHT22;7065;50.880;5.502;2024-03-02T05:43:15;6.30;99.90
13982;DHT22;7065;50.880;5.502;2024-03-02T05:45:41;6.20;99.90
13982;DHT22;7065;50.880;5.502;2024-03-02T05:48:07;6.20;99.90
13982;DHT22;7065;50.880;5.502;2024-03-02T05:50:33;6.20;99.90
13982;DHT22;7065;50.880;5.502;2024-03-02T05:52:59;6.10;99.90
13982;DHT22;7065;50.880;5.502;2024-03-02T05:55:24;6.10;99.90
13982;DHT22;7065;50.880;5.502;2024-03-02T05:57:50;6.10;99.90
13982;DHT22;7065;50.880;5.502;2024-03-02T06:00:31;6.10;99.90
13982;DHT22;7065;50.880;5.502;2024-03-02T06:02:56;6.10;99.90
13982;DHT22;7065;50.880;5.502;2024-03-02T06:05:23;6.10;99.90
13982;DHT22;7065;50.880;5.502;2024-03-02T06:07:48;6.20;99.90
13982;DHT22;7065;50.880;5.502;2024-03-02T06:10:14;6.20;99.90
13982;DHT22;7065;50.880;5.502;2024-03-02T06:12:40;6.20;99.90
13982;DHT22;7065;50.880;5.502;2024-03-02T06:15:06;6.20;99.90
13982;DHT22;7065;50.880;5.502;2024-03-02T06:17:32;6.30;99.90
13982;DHT22;7065;50.880;5.502;2024-03-02T06:19:57;6.20;99.90
13982;DHT22;7065;50.880;5.502;2024-03-02T06:22:23;6.20;99.90
13982;DHT22;7065;50.880;5.502;2024-03-02T06:24:50;6.20;99.90
13982;DHT22;7065;50.880;5.502;2024-03-02T06:27:16;6.20;99.90
13982;DHT22;7065;50.880;5.502;2024-03-02T06:29:42;6.20;99.90
13982;DHT22;7065;50.880;5.502;2024-03-02T06:32:08;6.20;99.90
13982;DHT22;7065;50.880;5.502;2024-03-02T06:34:33;6.20;99.90
13982;DHT22;7065;50.880;5.502;2024-03-02T06:36:59;6.20;99.90
13982;DHT22;7065;50.880;5.502;2024-03-02T06:39:25;6.20;99.90
13982;DHT22;7065;50.880;5.502;2024-03-02T06:41:51;6.20;99.90
13982;DHT22;7065;50.880;5.502;2024-03-02T06:44:17;6.20;99.90
13982;DHT22;7065;50.880;5.502;2024-03-02T06:46:43;6.30;99.90
13982;DHT22;7065;50.880;5.502;2024-03-02T06:49:09;6.30;99.90
13982;DHT22;7065;50.880;5.502;2024-03-02T06:51:36;6.30;99.90
13982;DHT22;7065;50.880;5.502;2024-03-02T06:54:02;6.30;99.90
13982;DHT22;7065;50.880;5.502;2024-03-02T06:56:28;6.30;99.90
13982;DHT22;7065;50.880;5.502;2024-03-02T06:58:54;6.30;99.90
13982;DHT22;7065;50.880;5.502;2024-03-02T07:01:19;6.30;99.90
13982;DHT22;7065;50.880;5.502;2024-03-02T07:03:48;6.30;99.90
13982;DHT22;7065;50.880;5.502;2024-03-02T07:06:14;6.30;99.90
13982;DHT22;7065;50.880;5.502;2024-03-02T07:08:39;6.30;99.90
13982;DHT22;7065;50.880;5.502;2024-03-02T07:11:05;6.30;99.90
13982;DHT22;7065;50.880;5.502;2024-03-02T07:13:31;6.30;99.90
13982;DHT22;7065;50.880;5.502;2024-03-02T07:15:56;6.30;99.90
13982;DHT22;7065;50.880;5.502;2024-03-02T07:18:28;6.30;99.90
13982;DHT22;7065;50.880;5.502;2024-03-02T07:20:54;6.30;99.90
13982;DHT22;7065;50.880;5.502;2024-03-02T07:23:21;6.30;99.90
13982;DHT22;7065;50.880;5.502;2024-03-02T07:25:50;6.30;99.90
13982;DHT22;7065;50.880;5.502;2024-03-02T07:28:16;6.30;99.90
13982;DHT22;7065;50.880;5.502;2024-03-02T07:30:41;6.20;99.90
13982;DHT22;7065;50.880;5.502;2024-03-02T07:33:07;6.20;99.90
13982;DHT22;7065;50.880;5.502;2024-03-02T07:35:33;6.20;99.90
13982;DHT22;7065;50.880;5.502;2024-03-02T07:37:59;6.20;99.90
13982;DHT22;7065;50.880;5.502;2024-03-02T07:40:25;6.20;99.90
13982;DHT22;7065;50.880;5.502;2024-03-02T07:42:50;6.20;99.90
13982;DHT22;7065;50.880;5.502;2024-03-02T07:45:16;6.20;99.90
13982;DHT22;7065;50.880;5.502;2024-03-02T07:47:42;6.20;99.90
13982;DHT22;7065;50.880;5.502;2024-03-02T07:50:08;6.20;99.90
13982;DHT22;7065;50.880;5.502;2024-03-02T07:52:34;6.20;99.90
13982;DHT22;7065;50.880;5.502;2024-03-02T07:55:00;6.30;99.90
13982;DHT22;7065;50.880;5.502;2024-03-02T07:57:25;6.30;99.90
13982;DHT22;7065;50.880;5.502;2024-03-02T07:59:51;6.40;99.90
13982;DHT22;7065;50.880;5.502;2024-03-02T08:02:17;6.50;99.90
13982;DHT22;7065;50.880;5.502;2024-03-02T08:04:43;6.50;99.90
13982;DHT22;7065;50.880;5.502;2024-03-02T08:07:09;6.60;99.90
13982;DHT22;7065;50.880;5.502;2024-03-02T08:09:35;6.70;99.90
13982;DHT22;7065;50.880;5.502;2024-03-02T08:12:01;6.70;99.90
13982;DHT22;7065;50.880;5.502;2024-03-02T08:14:26;6.80;99.90
13982;DHT22;7065;50.880;5.502;2024-03-02T08:16:52;6.90;99.90
13982;DHT22;7065;50.880;5.502;2024-03-02T08:19:18;7.00;99.90
13982;DHT22;7065;50.880;5.502;2024-03-02T08:21:43;7.00;99.90
13982;DHT22;7065;50.880;5.502;2024-03-02T08:24:09;7.10;99.90
13982;DHT22;7065;50.880;5.502;2024-03-02T08:26:35;7.10;99.90
13982;DHT22;7065;50.880;5.502;2024-03-02T08:29:01;7.20;99.90
13982;DHT22;7065;50.880;5.502;2024-03-02T08:31:29;7.30;99.90
13982;DHT22;7065;50.880;5.502;2024-03-02T08:33:54;7.30;99.90
13982;DHT22;7065;50.880;5.502;2024-03-02T08:36:20;7.40;99.90
13982;DHT22;7065;50.880;5.502;2024-03-02T08:38:48;7.40;99.90
13982;DHT22;7065;50.880;5.502;2024-03-02T08:41:13;7.50;99.90
13982;DHT22;7065;50.880;5.502;2024-03-02T08:43:42;7.60;99.90
13982;DHT22;7065;50.880;5.502;2024-03-02T08:46:08;7.60;99.90
13982;DHT22;7065;50.880;5.502;2024-03-02T08:48:36;7.70;99.90
13982;DHT22;7065;50.880;5.502;2024-03-02T08:51:01;7.80;99.90
13982;DHT22;7065;50.880;5.502;2024-03-02T08:53:30;7.80;99.90
13982;DHT22;7065;50.880;5.502;2024-03-02T08:55:55;7.90;99.90
13982;DHT22;7065;50.880;5.502;2024-03-02T08:58:21;8.00;99.90
13982;DHT22;7065;50.880;5.502;2024-03-02T09:00:47;8.00;99.90
13982;DHT22;7065;50.880;5.502;2024-03-02T09:03:13;8.00;99.90
13982;DHT22;7065;50.880;5.502;2024-03-02T09:05:39;8.10;99.90
13982;DHT22;7065;50.880;5.502;2024-03-02T09:08:05;8.10;99.90
13982;DHT22;7065;50.880;5.502;2024-03-02T09:10:30;8.10;99.90
13982;DHT22;7065;50.880;5.502;2024-03-02T09:12:56;8.10;99.90
13982;DHT22;7065;50.880;5.502;2024-03-02T09:15:22;8.20;99.90
13982;DHT22;7065;50.880;5.502;2024-03-02T09:17:48;8.20;99.90
13982;DHT22;7065;50.880;5.502;2024-03-02T09:20:13;8.20;99.90
13982;DHT22;7065;50.880;5.502;2024-03-02T09:22:39;8.30;99.90
13982;DHT22;7065;50.880;5.502;2024-03-02T09:25:05;8.30;99.90
13982;DHT22;7065;50.880;5.502;2024-03-02T09:27:36;8.30;99.90
13982;DHT22;7065;50.880;5.502;2024-03-02T09:30:03;8.40;99.90
13982;DHT22;7065;50.880;5.502;2024-03-02T09:32:30;8.40;99.90
13982;DHT22;7065;50.880;5.502;2024-03-02T09:34:56;8.40;99.90
13982;DHT22;7065;50.880;5.502;2024-03-02T09:37:23;8.40;99.90
13982;DHT22;7065;50.880;5.502;2024-03-02T09:39:49;8.40;99.90
13982;DHT22;7065;50.880;5.502;2024-03-02T09:42:15;8.50;99.90
13982;DHT22;7065;50.880;5.502;2024-03-02T09:44:42;8.50;99.90
13982;DHT22;7065;50.880;5.502;2024-03-02T09:47:08;8.60;99.90
13982;DHT22;7065;50.880;5.502;2024-03-02T09:49:34;8.80;99.90
13982;DHT22;7065;50.880;5.502;2024-03-02T09:52:00;9.00;99.90
13982;DHT22;7065;50.880;5.502;2024-03-02T09:54:26;9.10;99.90
13982;DHT22;7065;50.880;5.502;2024-03-02T09:56:52;9.20;99.90
13982;DHT22;7065;50.880;5.502;2024-03-02T09:59:17;9.40;99.90
13982;DHT22;7065;50.880;5.502;2024-03-02T10:02:02;9.50;99.90
13982;DHT22;7065;50.880;5.502;2024-03-02T10:04:29;9.60;99.90
13982;DHT22;7065;50.880;5.502;2024-03-02T10:07:17;9.80;99.90
13982;DHT22;7065;50.880;5.502;2024-03-02T10:09:47;9.90;99.90
13982;DHT22;7065;50.880;5.502;2024-03-02T10:12:14;10.00;99.90
13982;DHT22;7065;50.880;5.502;2024-03-02T10:14:41;10.20;99.90
13982;DHT22;7065;50.880;5.502;2024-03-02T10:17:12;10.20;99.90
13982;DHT22;7065;50.880;5.502;2024-03-02T10:19:38;10.30;99.90
13982;DHT22;7065;50.880;5.502;2024-03-02T10:22:06;10.30;99.90
13982;DHT22;7065;50.880;5.502;2024-03-02T10:24:40;10.30;99.90
13982;DHT22;7065;50.880;5.502;2024-03-02T10:27:15;10.40;99.90
13982;DHT22;7065;50.880;5.502;2024-03-02T10:29:41;10.50;99.90
13982;DHT22;7065;50.880;5.502;2024-03-02T10:32:10;10.60;99.90
13982;DHT22;7065;50.880;5.502;2024-03-02T10:34:37;10.80;99.90
13982;DHT22;7065;50.880;5.502;2024-03-02T10:37:03;10.90;99.90
13982;DHT22;7065;50.880;5.502;2024-03-02T10:39:30;11.00;99.90
13982;DHT22;7065;50.880;5.502;2024-03-02T10:41:57;11.20;99.90
13982;DHT22;7065;50.880;5.502;2024-03-02T10:44:24;11.30;99.90
13982;DHT22;7065;50.880;5.502;2024-03-02T10:46:51;11.20;99.90
13982;DHT22;7065;50.880;5.502;2024-03-02T10:49:19;11.20;99.90
13982;DHT22;7065;50.880;5.502;2024-03-02T10:51:46;11.20;99.90
13982;DHT22;7065;50.880;5.502;2024-03-02T10:54:12;11.20;99.90
13982;DHT22;7065;50.880;5.502;2024-03-02T10:56:41;11.20;99.90
13982;DHT22;7065;50.880;5.502;2024-03-02T10:59:17;11.20;99.90
13982;DHT22;7065;50.880;5.502;2024-03-02T11:01:48;11.20;99.90
13982;DHT22;7065;50.880;5.502;2024-03-02T11:04:16;11.20;99.90
13982;DHT22;7065;50.880;5.502;2024-03-02T11:06:49;11.20;99.90
13982;DHT22;7065;50.880;5.502;2024-03-02T11:09:20;11.10;99.90
13982;DHT22;7065;50.880;5.502;2024-03-02T11:11:51;11.10;99.90
13982;DHT22;7065;50.880;5.502;2024-03-02T11:14:24;11.10;99.90
13982;DHT22;7065;50.880;5.502;2024-03-02T11:16:51;11.10;99.90
13982;DHT22;7065;50.880;5.502;2024-03-02T11:19:18;11.10;99.90
13982;DHT22;7065;50.880;5.502;2024-03-02T11:21:44;11.10;99.90
13982;DHT22;7065;50.880;5.502;2024-03-02T11:24:36;11.10;99.90
13982;DHT22;7065;50.880;5.502;2024-03-02T11:27:04;11.20;99.90
13982;DHT22;7065;50.880;5.502;2024-03-02T11:32:13;11.20;99.90
13982;DHT22;7065;50.880;5.502;2024-03-02T11:34:41;11.30;99.90
13982;DHT22;7065;50.880;5.502;2024-03-02T11:37:10;11.40;99.90
13982;DHT22;7065;50.880;5.502;2024-03-02T11:39:38;11.50;99.90
13982;DHT22;7065;50.880;5.502;2024-03-02T11:42:08;11.50;99.90
13982;DHT22;7065;50.880;5.502;2024-03-02T11:44:36;11.60;99.90
13982;DHT22;7065;50.880;5.502;2024-03-02T11:47:05;11.70;99.90
13982;DHT22;7065;50.880;5.502;2024-03-02T11:49:49;11.70;99.90
13982;DHT22;7065;50.880;5.502;2024-03-02T11:52:16;11.70;99.90
13982;DHT22;7065;50.880;5.502;2024-03-02T11:54:45;11.80;99.90
13982;DHT22;7065;50.880;5.502;2024-03-02T11:57:18;11.80;99.90
13982;DHT22;7065;50.880;5.502;2024-03-02T11:59:44;11.90;99.90
13982;DHT22;7065;50.880;5.502;2024-03-02T12:02:18;12.00;99.90
13982;DHT22;7065;50.880;5.502;2024-03-02T12:04:45;12.20;99.90
13982;DHT22;7065;50.880;5.502;2024-03-02T12:07:11;12.30;99.90
13982;DHT22;7065;50.880;5.502;2024-03-02T12:09:38;12.30;99.90
13982;DHT22;7065;50.880;5.502;2024-03-02T12:12:08;12.30;99.90
13982;DHT22;7065;50.880;5.502;2024-03-02T12:14:36;12.40;99.90
13982;DHT22;7065;50.880;5.502;2024-03-02T12:17:03;12.50;99.90
13982;DHT22;7065;50.880;5.502;2024-03-02T12:19:29;12.60;99.90
13982;DHT22;7065;50.880;5.502;2024-03-02T12:21:59;12.60;99.90
13982;DHT22;7065;50.880;5.502;2024-03-02T12:24:29;12.70;99.90
13982;DHT22;7065;50.880;5.502;2024-03-02T12:26:55;12.70;99.90
13982;DHT22;7065;50.880;5.502;2024-03-02T12:29:22;12.70;99.90
13982;DHT22;7065;50.880;5.502;2024-03-02T12:31:48;12.80;99.90
13982;DHT22;7065;50.880;5.502;2024-03-02T12:34:15;12.80;99.90
13982;DHT22;7065;50.880;5.502;2024-03-02T12:36:42;12.90;99.90
13982;DHT22;7065;50.880;5.502;2024-03-02T12:39:08;12.90;99.90
13982;DHT22;7065;50.880;5.502;2024-03-02T12:41:39;12.90;99.90
13982;DHT22;7065;50.880;5.502;2024-03-02T12:44:05;12.90;99.90
13982;DHT22;7065;50.880;5.502;2024-03-02T12:46:34;12.90;99.90
13982;DHT22;7065;50.880;5.502;2024-03-02T12:49:11;12.90;99.90
13982;DHT22;7065;50.880;5.502;2024-03-02T12:51:41;13.00;99.90
13982;DHT22;7065;50.880;5.502;2024-03-02T12:54:08;12.90;99.90
13982;DHT22;7065;50.880;5.502;2024-03-02T12:56:35;12.90;99.90
13982;DHT22;7065;50.880;5.502;2024-03-02T12:59:01;12.80;99.90
13982;DHT22;7065;50.880;5.502;2024-03-02T13:01:27;12.80;99.90
13982;DHT22;7065;50.880;5.502;2024-03-02T13:03:53;12.70;99.90
13982;DHT22;7065;50.880;5.502;2024-03-02T13:06:23;12.70;99.90
13982;DHT22;7065;50.880;5.502;2024-03-02T13:08:49;12.80;99.90
13982;DHT22;7065;50.880;5.502;2024-03-02T13:11:16;12.90;99.90
13982;DHT22;7065;50.880;5.502;2024-03-02T13:13:42;13.00;99.90
13982;DHT22;7065;50.880;5.502;2024-03-02T13:16:12;13.20;99.90
13982;DHT22;7065;50.880;5.502;2024-03-02T13:18:41;13.30;99.90
13982;DHT22;7065;50.880;5.502;2024-03-02T13:21:08;13.40;99.90
13982;DHT22;7065;50.880;5.502;2024-03-02T13:23:34;13.50;99.90
13982;DHT22;7065;50.880;5.502;2024-03-02T13:26:01;13.50;99.90
13982;DHT22;7065;50.880;5.502;2024-03-02T13:28:27;13.50;99.90
13982;DHT22;7065;50.880;5.502;2024-03-02T13:30:52;13.60;99.90
13982;DHT22;7065;50.880;5.502;2024-03-02T13:33:18;13.70;99.90
13982;DHT22;7065;50.880;5.502;2024-03-02T13:35:49;13.80;99.90
13982;DHT22;7065;50.880;5.502;2024-03-02T13:38:19;13.80;99.90
13982;DHT22;7065;50.880;5.502;2024-03-02T13:40:45;13.80;99.90
13982;DHT22;7065;50.880;5.502;2024-03-02T13:43:11;13.90;99.90
13982;DHT22;7065;50.880;5.502;2024-03-02T13:45:38;14.10;99.90
13982;DHT22;7065;50.880;5.502;2024-03-02T13:48:03;14.10;99.90
13982;DHT22;7065;50.880;5.502;2024-03-02T13:50:29;14.10;99.90
13982;DHT22;7065;50.880;5.502;2024-03-02T13:52:55;14.00;99.90
13982;DHT22;7065;50.880;5.502;2024-03-02T13:55:22;13.70;99.90
13982;DHT22;7065;50.880;5.502;2024-03-02T13:57:47;13.60;99.90
13982;DHT22;7065;50.880;5.502;2024-03-02T14:00:16;13.60;99.90
13982;DHT22;7065;50.880;5.502;2024-03-02T14:02:43;13.50;99.90
13982;DHT22;7065;50.880;5.502;2024-03-02T14:05:08;13.60;99.90
13982;DHT22;7065;50.880;5.502;2024-03-02T14:07:40;13.70;99.90
13982;DHT22;7065;50.880;5.502;2024-03-02T14:10:06;13.80;99.90
13982;DHT22;7065;50.880;5.502;2024-03-02T14:12:32;13.80;99.90
13982;DHT22;7065;50.880;5.502;2024-03-02T14:14:58;13.80;99.90
13982;DHT22;7065;50.880;5.502;2024-03-02T14:17:26;13.80;99.90
13982;DHT22;7065;50.880;5.502;2024-03-02T14:19:52;13.70;99.90
13982;DHT22;7065;50.880;5.502;2024-03-02T14:22:19;13.70;99.90
13982;DHT22;7065;50.880;5.502;2024-03-02T14:24:45;13.60;99.90
13982;DHT22;7065;50.880;5.502;2024-03-02T14:27:11;13.60;99.90
13982;DHT22;7065;50.880;5.502;2024-03-02T14:29:38;13.60;99.90
13982;DHT22;7065;50.880;5.502;2024-03-02T14:32:05;13.70;99.90
13982;DHT22;7065;50.880;5.502;2024-03-02T14:34:31;13.70;99.90
13982;DHT22;7065;50.880;5.502;2024-03-02T14:36:57;13.70;99.90
13982;DHT22;7065;50.880;5.502;2024-03-02T14:39:22;13.70;99.90
13982;DHT22;7065;50.880;5.502;2024-03-02T14:41:48;13.70;99.90
13982;DHT22;7065;50.880;5.502;2024-03-02T14:44:14;13.70;99.90
13982;DHT22;7065;50.880;5.502;2024-03-02T14:46:41;13.70;99.90
13982;DHT22;7065;50.880;5.502;2024-03-02T14:49:07;13.60;99.90
13982;DHT22;7065;50.880;5.502;2024-03-02T14:51:33;13.50;99.90
13982;DHT22;7065;50.880;5.502;2024-03-02T14:53:59;13.50;99.90
13982;DHT22;7065;50.880;5.502;2024-03-02T14:56:24;13.50;99.90
13982;DHT22;7065;50.880;5.502;2024-03-02T14:58:50;13.40;99.90
13982;DHT22;7065;50.880;5.502;2024-03-02T15:01:16;13.30;99.90
13982;DHT22;7065;50.880;5.502;2024-03-02T15:03:43;13.20;99.90
13982;DHT22;7065;50.880;5.502;2024-03-02T15:06:09;13.20;99.90
13982;DHT22;7065;50.880;5.502;2024-03-02T15:08:35;13.20;99.90
13982;DHT22;7065;50.880;5.502;2024-03-02T15:11:01;13.20;99.90
13982;DHT22;7065;50.880;5.502;2024-03-02T15:13:29;13.20;99.90
13982;DHT22;7065;50.880;5.502;2024-03-02T15:15:54;13.20;99.90
13982;DHT22;7065;50.880;5.502;2024-03-02T15:18:20;13.20;99.90
13982;DHT22;7065;50.880;5.502;2024-03-02T15:20:46;13.20;99.90
13982;DHT22;7065;50.880;5.502;2024-03-02T15:23:11;13.20;99.90
13982;DHT22;7065;50.880;5.502;2024-03-02T15:25:38;13.10;99.90
13982;DHT22;7065;50.880;5.502;2024-03-02T15:28:04;13.10;99.90
13982;DHT22;7065;50.880;5.502;2024-03-02T15:30:29;13.00;99.90
13982;DHT22;7065;50.880;5.502;2024-03-02T15:32:55;13.00;99.90
13982;DHT22;7065;50.880;5.502;2024-03-02T15:35:21;13.00;99.90
13982;DHT22;7065;50.880;5.502;2024-03-02T15:37:46;12.90;99.90
13982;DHT22;7065;50.880;5.502;2024-03-02T15:40:12;12.90;99.90
13982;DHT22;7065;50.880;5.502;2024-03-02T15:42:37;12.80;99.90
13982;DHT22;7065;50.880;5.502;2024-03-02T15:45:03;12.80;99.90
13982;DHT22;7065;50.880;5.502;2024-03-02T15:47:30;12.80;99.90
13982;DHT22;7065;50.880;5.502;2024-03-02T15:49:55;12.70;99.90
13982;DHT22;7065;50.880;5.502;2024-03-02T15:52:21;12.70;99.90
13982;DHT22;7065;50.880;5.502;2024-03-02T15:54:50;12.70;99.90
13982;DHT22;7065;50.880;5.502;2024-03-02T15:57:16;12.70;99.90
13982;DHT22;7065;50.880;5.502;2024-03-02T15:59:45;12.70;99.90